createdAt,value
2023-03-06T00:01:30.085Z,99013.66
2023-03-06T00:03:59.254Z,99015.38
2023-03-06T00:06:27.754Z,99023.88
2023-03-06T00:08:56.179Z,99012.84
2023-03-06T00:11:25.304Z,99008.59
2023-03-06T00:13:54.102Z,99012.03
2023-03-06T00:16:25.134Z,99005.22
2023-03-06T00:18:54.142Z,99002.69
2023-03-06T00:21:22.580Z,99005.25
2023-03-06T00:23:51.599Z,99012.88
2023-03-06T00:26:21.067Z,99009.47
2023-03-06T00:28:50.135Z,99013.72
2023-03-06T00:31:19.255Z,99006.06
2023-03-06T00:33:49.656Z,99009.47
2023-03-06T00:36:20.491Z,99010.31
2023-03-06T00:38:50.694Z,99007.75
2023-03-06T00:41:19.468Z,99003.53
2023-03-06T00:43:48.286Z,99001.81
2023-03-06T00:46:16.907Z,99003.53
2023-03-06T00:48:45.772Z,99005.22
2023-03-06T00:51:17.557Z,99004.41
2023-03-06T00:53:46.464Z,99001.00
2023-03-06T00:56:14.991Z,99003.53
2023-03-06T00:58:44.158Z,98998.44
2023-03-06T01:01:12.971Z,98996.72
2023-03-06T01:03:42.592Z,98995.03
2023-03-06T01:06:13.453Z,98991.63
2023-03-06T01:08:43.567Z,98999.25
2023-03-06T01:11:12.312Z,98991.63
2023-03-06T01:13:42.726Z,98996.75
2023-03-06T01:16:14.388Z,98996.75
2023-03-06T01:18:44.039Z,98996.75
2023-03-06T01:21:13.565Z,98995.06
2023-03-06T01:23:43.637Z,98984.84
2023-03-06T01:26:12.133Z,98998.47
2023-03-06T01:28:40.792Z,98993.38
2023-03-06T01:31:10.654Z,98989.13
2023-03-06T01:33:39.582Z,98989.09
2023-03-06T01:36:10.577Z,98988.25
2023-03-06T01:38:39.744Z,98994.22
2023-03-06T01:41:15.812Z,98981.44
2023-03-06T01:43:46.487Z,98984.84
2023-03-06T01:46:25.326Z,98982.28
2023-03-06T01:48:56.872Z,98977.19
2023-03-06T01:51:29.894Z,98978.88
2023-03-06T01:54:01.356Z,98978.88
2023-03-06T01:56:31.454Z,98979.72
2023-03-06T01:59:01.012Z,98978.91
2023-03-06T02:01:31.516Z,98982.28
2023-03-06T02:04:02.352Z,98978.03
2023-03-06T02:06:31.158Z,98975.47
2023-03-06T02:09:05.840Z,98976.34
2023-03-06T02:11:35.853Z,98977.19
2023-03-06T02:14:04.598Z,98975.47
2023-03-06T02:16:34.504Z,98977.19
2023-03-06T02:19:03.875Z,98969.53
2023-03-06T02:21:36.514Z,98972.06
2023-03-06T02:24:15.908Z,98973.75
2023-03-06T02:26:47.855Z,98975.47
2023-03-06T02:29:23.181Z,98972.06
2023-03-06T02:31:51.677Z,98976.34
2023-03-06T02:34:54.492Z,98975.47
2023-03-06T02:37:25.018Z,98975.47
2023-03-06T02:39:59.009Z,98975.47
2023-03-06T02:42:30.085Z,98968.69
2023-03-06T02:45:03.538Z,98965.25
2023-03-06T02:47:32.071Z,98966.13
2023-03-06T02:50:00.876Z,98967.78
2023-03-06T02:52:29.493Z,98968.66
2023-03-06T02:54:58.002Z,98959.31
2023-03-06T02:57:26.607Z,98968.66
2023-03-06T02:59:56.952Z,98966.13
2023-03-06T03:02:25.754Z,98971.22
2023-03-06T03:04:54.355Z,98965.25
2023-03-06T03:07:22.790Z,98970.38
2023-03-06T03:09:51.199Z,98969.53
2023-03-06T03:12:21.404Z,98969.50
2023-03-06T03:14:49.957Z,98964.41
2023-03-06T03:17:20.389Z,98966.94
2023-03-06T03:19:49.206Z,98971.22
2023-03-06T03:22:18.628Z,98966.97
2023-03-06T03:24:47.730Z,98972.09
2023-03-06T03:27:16.602Z,98951.63
2023-03-06T03:29:46.054Z,98958.44
2023-03-06T03:32:15.062Z,98951.63
2023-03-06T03:34:45.595Z,98954.19
2023-03-06T03:37:15.140Z,98949.06
2023-03-06T03:39:44.586Z,98956.75
2023-03-06T03:42:13.569Z,98953.34
2023-03-06T03:44:41.974Z,98949.91
2023-03-06T03:47:10.461Z,98949.94
2023-03-06T03:49:39.107Z,98950.78
2023-03-06T03:52:09.838Z,98952.50
2023-03-06T03:54:40.206Z,98959.31
2023-03-06T03:57:08.640Z,98953.34
2023-03-06T03:59:41.656Z,98955.88
2023-03-06T04:02:33.061Z,98955.91
2023-03-06T04:05:34.153Z,98947.41
2023-03-06T04:08:06.525Z,98949.09
2023-03-06T04:10:39.530Z,98952.50
2023-03-06T04:13:10.368Z,98954.16
2023-03-06T04:15:43.220Z,98953.31
2023-03-06T04:18:12.882Z,98957.63
2023-03-06T04:20:42.199Z,98955.03
2023-03-06T04:23:13.312Z,98950.78
2023-03-06T04:25:41.901Z,98945.66
2023-03-06T04:28:13.626Z,98949.09
2023-03-06T04:30:42.136Z,98951.63
2023-03-06T04:33:11.249Z,98944.81
2023-03-06T04:35:40.225Z,98946.50
2023-03-06T04:38:15.561Z,98945.66
2023-03-06T04:40:45.109Z,98948.19
2023-03-06T04:43:13.961Z,98946.47
2023-03-06T04:45:42.550Z,98942.22
2023-03-06T04:48:13.847Z,98939.69
2023-03-06T04:50:42.805Z,98935.41
2023-03-06T04:53:11.542Z,98939.66
2023-03-06T04:55:41.752Z,98922.63
2023-03-06T04:58:12.702Z,98937.06
2023-03-06T05:00:41.398Z,98936.22
2023-03-06T05:03:10.590Z,98933.66
2023-03-06T05:05:39.017Z,98942.16
2023-03-06T05:08:08.011Z,98938.75
2023-03-06T05:10:36.472Z,98934.50
2023-03-06T05:13:06.896Z,98941.25
2023-03-06T05:15:35.376Z,98940.41
2023-03-06T05:18:03.903Z,98937.00
2023-03-06T05:20:32.354Z,98935.28
2023-03-06T05:23:00.737Z,98937.88
2023-03-06T05:25:29.277Z,98944.69
2023-03-06T05:27:58.549Z,98942.13
2023-03-06T05:30:28.460Z,98945.53
2023-03-06T05:32:57.271Z,98947.25
2023-03-06T05:35:26.077Z,98952.34
2023-03-06T05:37:54.505Z,98946.41
2023-03-06T05:40:23.346Z,98948.97
2023-03-06T05:42:51.898Z,98943.00
2023-03-06T05:45:20.802Z,98953.22
2023-03-06T05:47:50.843Z,98947.31
2023-03-06T05:50:19.607Z,98953.28
2023-03-06T05:52:48.305Z,98948.22
2023-03-06T05:55:16.935Z,98947.34
2023-03-06T05:57:45.427Z,98944.84
2023-03-06T06:00:16.139Z,98954.19
2023-03-06T06:02:47.054Z,98954.22
2023-03-06T06:05:17.269Z,98951.63
2023-03-06T06:07:45.715Z,98948.22
2023-03-06T06:10:14.309Z,98943.97
2023-03-06T06:12:42.815Z,98948.22
2023-03-06T06:15:11.891Z,98948.25
2023-03-06T06:17:40.931Z,98946.53
2023-03-06T06:20:10.856Z,98955.91
2023-03-06T06:22:40.729Z,98944.81
2023-03-06T06:25:10.045Z,98944.81
2023-03-06T06:27:38.898Z,98948.22
2023-03-06T06:30:08.721Z,98953.31
2023-03-06T06:32:38.119Z,98947.31
2023-03-06T06:35:07.805Z,98945.56
2023-03-06T06:37:36.630Z,98945.50
2023-03-06T06:40:07.747Z,98945.47
2023-03-06T06:42:39.855Z,98945.44
2023-03-06T06:45:10.172Z,98951.34
2023-03-06T06:47:41.615Z,98937.63
2023-03-06T06:50:12.034Z,98948.59
2023-03-06T06:52:41.863Z,98941.63
2023-03-06T06:55:13.307Z,98939.72
2023-03-06T06:57:42.580Z,98946.31
2023-03-06T07:00:15.413Z,98941.88
2023-03-06T07:02:44.390Z,98940.84
2023-03-06T07:05:12.958Z,98944.97
2023-03-06T07:07:42.333Z,98944.78
2023-03-06T07:10:16.664Z,98945.41
2023-03-06T07:12:45.244Z,98946.81
2023-03-06T07:15:16.154Z,98948.16
2023-03-06T07:17:44.878Z,98947.09
2023-03-06T07:20:13.467Z,98942.56
2023-03-06T07:22:50.885Z,98937.13
2023-03-06T07:25:22.574Z,98943.69
2023-03-06T07:27:54.252Z,98940.91
2023-03-06T07:30:23.976Z,98932.91
2023-03-06T07:32:56.615Z,98931.84
2023-03-06T07:35:26.072Z,98933.34
2023-03-06T07:37:55.136Z,98927.97
2023-03-06T07:40:26.538Z,98929.38
2023-03-06T07:43:06.083Z,98924.88
2023-03-06T07:45:47.031Z,98931.50
2023-03-06T07:48:15.576Z,98929.53
2023-03-06T07:50:44.073Z,98931.81
2023-03-06T07:53:12.991Z,98933.31
2023-03-06T07:55:43.081Z,98934.00
2023-03-06T07:58:12.047Z,98939.81
2023-03-06T08:00:40.505Z,98937.94
2023-03-06T08:03:10.533Z,98929.16
2023-03-06T08:05:39.543Z,98931.47
2023-03-06T08:08:08.925Z,98933.06
2023-03-06T08:10:37.526Z,98921.72
2023-03-06T08:13:07.490Z,98928.44
2023-03-06T08:15:35.848Z,98927.41
2023-03-06T08:18:04.725Z,98918.63
2023-03-06T08:20:33.317Z,98915.69
2023-03-06T08:23:02.469Z,98920.47
2023-03-06T08:25:31.042Z,98922.75
2023-03-06T08:28:05.721Z,98914.72
2023-03-06T08:30:36.970Z,98920.31
2023-03-06T08:33:05.660Z,98923.44
2023-03-06T08:35:34.078Z,98914.69
2023-03-06T08:38:02.776Z,98912.59
2023-03-06T08:40:31.766Z,98917.34
2023-03-06T08:43:00.360Z,98912.66
2023-03-06T08:45:29.101Z,98909.94
2023-03-06T08:47:59.224Z,98915.28
2023-03-06T08:50:27.688Z,98919.22
2023-03-06T08:52:56.618Z,98911.63
2023-03-06T08:55:25.612Z,98900.66
2023-03-06T08:57:54.150Z,98908.25
2023-03-06T09:00:23.246Z,98913.91
2023-03-06T09:02:51.770Z,98907.59
2023-03-06T09:05:22.316Z,98909.38
2023-03-06T09:07:51.189Z,98905.06
2023-03-06T09:10:23.194Z,98908.63
2023-03-06T09:12:54.425Z,98906.75
2023-03-06T09:15:24.493Z,98906.75
2023-03-06T09:17:54.313Z,98902.56
2023-03-06T09:20:24.361Z,98902.81
2023-03-06T09:22:53.138Z,98901.28
2023-03-06T09:25:23.385Z,98901.44
2023-03-06T09:28:08.646Z,98897.41
2023-03-06T09:30:41.537Z,98897.59
2023-03-06T09:33:10.314Z,98893.38
2023-03-06T09:35:48.062Z,98885.78
2023-03-06T09:38:16.678Z,98882.38
2023-03-06T09:41:02.079Z,98885.13
2023-03-06T09:43:33.203Z,98884.44
2023-03-06T09:46:01.663Z,98875.38
2023-03-06T09:48:40.961Z,98886.53
2023-03-06T09:51:16.468Z,98887.59
2023-03-06T09:54:03.598Z,98894.75
2023-03-06T09:56:35.585Z,98889.66
2023-03-06T09:59:12.589Z,98885.16
2023-03-06T10:01:45.937Z,98882.34
2023-03-06T10:04:33.710Z,98881.56
2023-03-06T10:07:12.763Z,98889.00
2023-03-06T10:09:47.774Z,98879.88
2023-03-06T10:12:24.994Z,98866.31
2023-03-06T10:15:01.723Z,98879.59
2023-03-06T10:17:36.805Z,98877.97
2023-03-06T10:20:18.374Z,98880.09
2023-03-06T10:23:05.089Z,98870.13
2023-03-06T10:25:38.991Z,98868.00
2023-03-06T10:28:16.924Z,98868.81
2023-03-06T10:30:56.286Z,98861.13
2023-03-06T10:33:34.786Z,98851.56
2023-03-06T10:36:03.309Z,98854.19
2023-03-06T10:38:38.439Z,98845.78
2023-03-06T10:41:22.622Z,98839.13
2023-03-06T10:44:25.189Z,98833.19
2023-03-06T10:46:56.412Z,98837.25
2023-03-06T10:49:33.818Z,98830.91
2023-03-06T10:52:06.994Z,98832.59
2023-03-06T10:54:38.771Z,98828.50
2023-03-06T10:57:26.035Z,98817.63
2023-03-06T10:59:59.042Z,98817.84
2023-03-06T11:02:31.550Z,98806.16
2023-03-06T11:05:02.033Z,98804.09
2023-03-06T11:07:31.608Z,98805.03
2023-03-06T11:10:06.308Z,98806.16
2023-03-06T11:12:36.886Z,98809.00
2023-03-06T11:15:22.876Z,98796.22
2023-03-06T11:17:58.699Z,98795.44
2023-03-06T11:20:44.645Z,98794.41
2023-03-06T11:23:21.035Z,98787.28
2023-03-06T11:25:56.743Z,98779.28
2023-03-06T11:28:30.160Z,98779.94
2023-03-06T11:31:04.194Z,98772.84
2023-03-06T11:33:40.765Z,98769.41
2023-03-06T11:36:16.585Z,98766.78
2023-03-06T11:38:50.292Z,98755.56
2023-03-06T11:41:32.591Z,98764.84
2023-03-06T11:44:14.652Z,98759.81
2023-03-06T11:46:49.677Z,98756.31
2023-03-06T11:49:24.738Z,98756.41
2023-03-06T11:51:56.915Z,98753.84
2023-03-06T11:54:26.246Z,98746.34
2023-03-06T11:56:59.789Z,98745.38
2023-03-06T11:59:51.711Z,98741.13
2023-03-06T12:02:30.640Z,98738.63
2023-03-06T12:05:23.011Z,98731.03
2023-03-06T12:08:00.615Z,98740.16
2023-03-06T12:10:36.774Z,98740.28
2023-03-06T12:13:37.062Z,98733.28
2023-03-06T12:16:34.669Z,98727.94
2023-03-06T12:19:19.930Z,98733.94
2023-03-06T12:21:59.436Z,98728.59
2023-03-06T12:24:46.319Z,98724.16
2023-03-06T12:27:24.005Z,98723.16
2023-03-06T12:30:22.143Z,98718.66
2023-03-06T12:32:59.015Z,98723.69
2023-03-06T12:35:50.900Z,98719.16
2023-03-06T12:38:38.730Z,98722.88
2023-03-06T12:41:21.878Z,98717.88
2023-03-06T12:44:14.267Z,98709.31
2023-03-06T12:46:48.206Z,98716.56
2023-03-06T12:49:31.804Z,98712.69
2023-03-06T12:52:03.861Z,98715.81
2023-03-06T12:54:37.737Z,98717.16
2023-03-06T12:57:09.765Z,98715.22
2023-03-06T12:59:42.932Z,98716.66
2023-03-06T13:02:58.084Z,98709.09
2023-03-06T13:05:57.340Z,98711.72
2023-03-06T13:09:00.104Z,98713.16
2023-03-06T13:12:02.142Z,98712.94
2023-03-06T13:14:54.673Z,98712.09
2023-03-06T13:17:41.392Z,98706.13
2023-03-06T13:20:42.336Z,98706.19
2023-03-06T13:24:01.290Z,98701.91
2023-03-06T13:26:55.570Z,98704.31
2023-03-06T13:30:00.885Z,98695.72
2023-03-06T13:32:34.907Z,98690.38
2023-03-06T13:35:04.277Z,98696.16
2023-03-06T13:37:50.853Z,98691.63
2023-03-06T13:40:31.515Z,98689.91
2023-03-06T13:43:26.154Z,98691.69
2023-03-06T13:45:54.861Z,98689.09
2023-03-06T13:48:47.646Z,98686.41
2023-03-06T13:51:24.349Z,98690.66
2023-03-06T13:54:27.292Z,98686.88
2023-03-06T13:57:14.900Z,98683.22
2023-03-06T14:00:12.062Z,98680.34
2023-03-06T14:03:14.403Z,98681.66
2023-03-06T14:05:45.453Z,98679.44
2023-03-06T14:08:17.937Z,98676.38
2023-03-06T14:10:49.603Z,98683.72
2023-03-06T14:13:23.548Z,98669.19
2023-03-06T14:15:55.857Z,98679.91
2023-03-06T14:18:25.688Z,98670.03
2023-03-06T14:20:58.931Z,98672.03
2023-03-06T14:23:33.604Z,98667.06
2023-03-06T14:26:10.094Z,98672.25
2023-03-06T14:28:38.783Z,98668.03
2023-03-06T14:31:17.431Z,98669.06
2023-03-06T14:33:52.991Z,98669.31
2023-03-06T14:36:23.864Z,98666.13
2023-03-06T14:38:55.034Z,98670.72
2023-03-06T14:41:27.061Z,98672.78
2023-03-06T14:44:09.652Z,98666.88
2023-03-06T14:46:39.959Z,98667.69
2023-03-06T14:49:08.960Z,98667.84
2023-03-06T14:51:43.720Z,98671.22
2023-03-06T14:54:19.666Z,98669.53
2023-03-06T14:56:53.175Z,98670.56
2023-03-06T14:59:26.422Z,98665.41
2023-03-06T15:02:00.759Z,98663.09
2023-03-06T15:04:36.855Z,98658.91
2023-03-06T15:07:10.896Z,98665.94
2023-03-06T15:09:40.861Z,98666.81
2023-03-06T15:12:38.739Z,98663.41
2023-03-06T15:15:30.327Z,98656.75
2023-03-06T15:18:01.441Z,98659.53
2023-03-06T15:20:43.308Z,98657.16
2023-03-06T15:23:21.764Z,98658.38
2023-03-06T15:25:52.799Z,98663.00
2023-03-06T15:28:37.168Z,98659.75
2023-03-06T15:31:20.756Z,98660.03
2023-03-06T15:34:27.937Z,98657.78
2023-03-06T15:36:58.938Z,98655.38
2023-03-06T15:39:30.580Z,98657.28
2023-03-06T15:42:00.295Z,98651.44
2023-03-06T15:44:32.874Z,98654.94
2023-03-06T15:47:09.393Z,98654.16
2023-03-06T15:49:41.051Z,98650.03
2023-03-06T15:52:11.503Z,98645.09
2023-03-06T15:54:40.235Z,98649.69
2023-03-06T15:57:18.732Z,98651.66
2023-03-06T15:59:47.695Z,98644.28
2023-03-06T16:02:19.027Z,98648.72
2023-03-06T16:04:49.649Z,98651.44
2023-03-06T16:07:18.712Z,98645.69
2023-03-06T16:09:47.849Z,98637.19
2023-03-06T16:12:18.764Z,98644.28
2023-03-06T16:14:48.733Z,98645.34
2023-03-06T16:17:17.931Z,98642.88
2023-03-06T16:19:48.271Z,98646.41
2023-03-06T16:22:16.823Z,98646.50
2023-03-06T16:24:45.511Z,98637.97
2023-03-06T16:27:19.249Z,98634.66
2023-03-06T16:29:47.816Z,98640.81
2023-03-06T16:32:17.660Z,98634.09
2023-03-06T16:34:46.489Z,98640.19
2023-03-06T16:37:16.989Z,98642.75
2023-03-06T16:39:45.610Z,98638.50
2023-03-06T16:42:14.148Z,98641.94
2023-03-06T16:44:42.916Z,98647.13
2023-03-06T16:47:13.148Z,98637.69
2023-03-06T16:49:42.351Z,98642.84
2023-03-06T16:52:12.239Z,98647.25
2023-03-06T16:54:44.600Z,98650.69
2023-03-06T16:57:15.778Z,98650.69
2023-03-06T16:59:44.428Z,98646.44
2023-03-06T17:02:13.669Z,98650.00
2023-03-06T17:04:42.512Z,98654.41
2023-03-06T17:07:11.946Z,98651.72
2023-03-06T17:09:42.161Z,98664.53
2023-03-06T17:12:11.333Z,98662.31
2023-03-06T17:14:40.585Z,98668.34
2023-03-06T17:17:09.144Z,98658.75
2023-03-06T17:19:38.698Z,98664.81
2023-03-06T17:22:07.631Z,98655.38
2023-03-06T17:24:37.690Z,98662.97
2023-03-06T17:27:08.109Z,98661.06
2023-03-06T17:29:36.786Z,98670.59
2023-03-06T17:32:05.724Z,98672.91
2023-03-06T17:34:34.448Z,98663.25
2023-03-06T17:37:06.498Z,98659.63
2023-03-06T17:39:35.654Z,98663.84
2023-03-06T17:42:05.262Z,98668.25
2023-03-06T17:44:35.836Z,98672.63
2023-03-06T17:47:04.854Z,98677.09
2023-03-06T17:49:33.593Z,98681.56
2023-03-06T17:52:03.771Z,98681.03
2023-03-06T17:54:33.428Z,98679.63
2023-03-06T17:57:03.760Z,98683.50
2023-03-06T17:59:35.347Z,98683.81
2023-03-06T18:02:06.497Z,98686.66
2023-03-06T18:04:35.258Z,98682.50
2023-03-06T18:07:04.158Z,98682.63
2023-03-06T18:09:32.746Z,98674.16
2023-03-06T18:12:01.788Z,98679.50
2023-03-06T18:14:30.708Z,98674.34
2023-03-06T18:17:00.930Z,98681.31
2023-03-06T18:19:29.866Z,98681.19
2023-03-06T18:21:58.594Z,98676.03
2023-03-06T18:24:27.465Z,98674.34
2023-03-06T18:26:56.061Z,98675.25
2023-03-06T18:29:24.705Z,98673.56
2023-03-06T18:31:53.530Z,98665.91
2023-03-06T18:34:24.011Z,98675.38
2023-03-06T18:36:53.057Z,98678.81
2023-03-06T18:39:22.602Z,98683.19
2023-03-06T18:41:51.988Z,98673.72
2023-03-06T18:44:21.111Z,98672.88
2023-03-06T18:46:50.086Z,98665.97
2023-03-06T18:49:19.280Z,98659.13
2023-03-06T18:51:51.134Z,98657.50
2023-03-06T18:54:20.477Z,98664.41
2023-03-06T18:56:49.701Z,98660.06
2023-03-06T18:59:19.008Z,98660.94
2023-03-06T19:01:48.829Z,98657.47
2023-03-06T19:04:17.367Z,98659.13
2023-03-06T19:06:46.275Z,98653.97
2023-03-06T19:09:16.568Z,98644.53
2023-03-06T19:11:47.005Z,98641.97
2023-03-06T19:14:16.365Z,98653.22
2023-03-06T19:16:45.317Z,98645.53
2023-03-06T19:19:13.895Z,98648.94
2023-03-06T19:21:42.977Z,98653.22
2023-03-06T19:24:14.197Z,98646.25
2023-03-06T19:26:44.436Z,98641.97
2023-03-06T19:29:13.159Z,98643.63
2023-03-06T19:31:43.303Z,98648.81
2023-03-06T19:34:12.048Z,98643.75
2023-03-06T19:36:40.978Z,98643.75
2023-03-06T19:39:09.998Z,98644.63
2023-03-06T19:41:38.669Z,98647.16
2023-03-06T19:44:09.368Z,98638.59
2023-03-06T19:46:40.822Z,98636.88
2023-03-06T19:49:12.268Z,98638.47
2023-03-06T19:51:40.917Z,98636.72
2023-03-06T19:54:10.725Z,98630.63
2023-03-06T19:56:39.430Z,98628.97
2023-03-06T19:59:09.891Z,98630.72
2023-03-06T20:01:38.794Z,98620.41
2023-03-06T20:04:07.520Z,98621.34
2023-03-06T20:06:36.895Z,98621.38
2023-03-06T20:09:07.546Z,98621.47
2023-03-06T20:11:36.805Z,98622.47
2023-03-06T20:14:09.885Z,98625.91
2023-03-06T20:16:38.773Z,98620.72
2023-03-06T20:19:08.772Z,98622.47
2023-03-06T20:21:38.102Z,98628.44
2023-03-06T20:24:09.012Z,98631.00
2023-03-06T20:26:38.688Z,98628.44
2023-03-06T20:29:08.648Z,98625.06
2023-03-06T20:31:37.380Z,98615.69
2023-03-06T20:34:06.757Z,98620.00
2023-03-06T20:36:37.910Z,98616.50
2023-03-06T20:39:09.462Z,98613.13
2023-03-06T20:41:38.267Z,98617.59
2023-03-06T20:44:13.135Z,98615.03
2023-03-06T20:46:42.309Z,98615.09
2023-03-06T20:49:12.806Z,98626.41
2023-03-06T20:51:42.466Z,98619.50
2023-03-06T20:54:13.223Z,98609.13
2023-03-06T20:56:44.993Z,98611.59
2023-03-06T20:59:14.882Z,98616.78
2023-03-06T21:01:45.440Z,98614.28
2023-03-06T21:04:15.977Z,98612.56
2023-03-06T21:06:47.022Z,98610.84
2023-03-06T21:09:17.405Z,98617.59
2023-03-06T21:11:46.681Z,98611.63
2023-03-06T21:14:17.043Z,98611.69
2023-03-06T21:16:45.611Z,98605.63
2023-03-06T21:19:14.454Z,98606.47
2023-03-06T21:21:43.386Z,98607.31
2023-03-06T21:24:12.179Z,98615.03
2023-03-06T21:26:41.261Z,98616.72
2023-03-06T21:29:11.227Z,98613.13
2023-03-06T21:31:41.783Z,98610.56
2023-03-06T21:34:11.640Z,98607.06
2023-03-06T21:36:40.266Z,98602.78
2023-03-06T21:39:09.903Z,98605.34
2023-03-06T21:41:42.102Z,98602.84
2023-03-06T21:44:11.939Z,98602.13
2023-03-06T21:46:42.978Z,98604.00
2023-03-06T21:49:11.872Z,98604.97
2023-03-06T21:51:40.615Z,98607.59
2023-03-06T21:54:10.310Z,98601.66
2023-03-06T21:56:38.847Z,98600.03
2023-03-06T21:59:07.559Z,98603.59
2023-03-06T22:01:36.740Z,98599.34
2023-03-06T22:04:07.172Z,98600.19
2023-03-06T22:06:36.324Z,98605.25
2023-03-06T22:09:05.474Z,98599.19
2023-03-06T22:11:37.129Z,98605.25
2023-03-06T22:14:05.914Z,98615.59
2023-03-06T22:16:34.878Z,98600.97
2023-03-06T22:19:03.777Z,98600.97
2023-03-06T22:21:33.906Z,98606.16
2023-03-06T22:24:02.550Z,98608.81
2023-03-06T22:26:31.515Z,98602.06
2023-03-06T22:29:00.264Z,98602.16
2023-03-06T22:31:29.841Z,98604.03
2023-03-06T22:34:00.393Z,98601.56
2023-03-06T22:36:31.716Z,98607.53
2023-03-06T22:39:04.606Z,98604.03
2023-03-06T22:41:33.498Z,98610.03
2023-03-06T22:44:03.451Z,98602.34
2023-03-06T22:46:32.334Z,98595.50
2023-03-06T22:49:02.460Z,98594.63
2023-03-06T22:51:31.136Z,98604.03
2023-03-06T22:53:59.987Z,98602.34
2023-03-06T22:56:30.268Z,98606.69
2023-03-06T22:58:59.272Z,98605.81
2023-03-06T23:01:29.861Z,98607.50
2023-03-06T23:04:00.111Z,98601.56
2023-03-06T23:06:30.835Z,98596.44
2023-03-06T23:09:01.427Z,98598.38
2023-03-06T23:11:31.860Z,98598.56
2023-03-06T23:14:20.718Z,98603.00
2023-03-06T23:17:07.620Z,98606.44
2023-03-06T23:19:54.830Z,98604.66
2023-03-06T23:22:42.043Z,98606.28
2023-03-06T23:25:29.296Z,98603.59
2023-03-06T23:27:59.691Z,98607.78
2023-03-06T23:30:28.355Z,98607.66
2023-03-06T23:32:57.253Z,98611.94
2023-03-06T23:35:25.919Z,98619.72
2023-03-06T23:37:54.650Z,98612.88
2023-03-06T23:40:23.336Z,98611.16
2023-03-06T23:42:51.814Z,98620.59
2023-03-06T23:45:22.021Z,98613.63
2023-03-06T23:47:50.881Z,98614.41
2023-03-06T23:50:19.824Z,98614.34
2023-03-06T23:52:48.408Z,98631.53
2023-03-06T23:55:17.056Z,98622.91
2023-03-06T23:57:45.747Z,98620.38
